createdAt,value
2023-04-15T00:00:01.872Z,996.26
2023-04-15T00:01:01.729Z,996.25
2023-04-15T00:02:01.777Z,996.25
2023-04-15T00:03:01.883Z,996.24
2023-04-15T00:04:01.967Z,996.23
2023-04-15T00:05:01.660Z,996.23
2023-04-15T00:06:01.728Z,996.21
2023-04-15T00:07:01.646Z,996.21
2023-04-15T00:08:01.656Z,996.19
2023-04-15T00:09:01.879Z,996.19
2023-04-15T00:10:01.639Z,996.18
2023-04-15T00:11:01.619Z,996.18
2023-04-15T00:12:01.578Z,996.17
2023-04-15T00:13:01.569Z,996.17
2023-04-15T00:14:01.579Z,996.16
2023-04-15T00:15:01.612Z,996.15
2023-04-15T00:16:01.564Z,996.14
2023-04-15T00:17:01.637Z,996.14
2023-04-15T00:18:01.530Z,996.15
2023-04-15T00:19:01.724Z,996.15
2023-04-15T00:20:01.536Z,996.15
2023-04-15T00:21:01.496Z,996.15
2023-04-15T00:22:01.491Z,996.15
2023-04-15T00:23:01.466Z,996.14
2023-04-15T00:24:01.467Z,996.14
2023-04-15T00:25:01.452Z,996.13
2023-04-15T00:26:01.459Z,996.14
2023-04-15T00:27:01.446Z,996.14
2023-04-15T00:28:01.531Z,996.14
2023-04-15T00:29:01.766Z,996.14
2023-04-15T00:30:01.545Z,996.13
2023-04-15T00:31:01.555Z,996.14
2023-04-15T00:32:01.394Z,996.13
2023-04-15T00:33:01.448Z,996.13
2023-04-15T00:34:01.395Z,996.12
2023-04-15T00:35:01.332Z,996.11
2023-04-15T00:36:01.319Z,996.11
2023-04-15T00:37:01.340Z,996.11
2023-04-15T00:38:01.337Z,996.10
2023-04-15T00:39:01.481Z,996.11
2023-04-15T00:40:01.286Z,996.12
2023-04-15T00:41:01.291Z,996.11
2023-04-15T00:42:01.330Z,996.12
2023-04-15T00:43:01.308Z,996.13
2023-04-15T00:44:01.235Z,996.13
2023-04-15T00:45:01.250Z,996.13
2023-04-15T00:46:01.269Z,996.13
2023-04-15T00:47:01.202Z,996.13
2023-04-15T00:48:01.264Z,996.13
2023-04-15T00:49:01.282Z,996.12
2023-04-15T00:50:01.224Z,996.13
2023-04-15T00:51:01.169Z,996.14
2023-04-15T00:52:01.162Z,996.14
2023-04-15T00:53:01.146Z,996.15
2023-04-15T00:54:01.142Z,996.16
2023-04-15T00:55:01.280Z,996.15
2023-04-15T00:56:01.114Z,996.13
2023-04-15T00:57:01.185Z,996.12
2023-04-15T00:58:01.129Z,996.11
2023-04-15T00:59:01.448Z,996.10
2023-04-15T01:00:01.218Z,996.11
2023-04-15T01:01:01.161Z,996.10
2023-04-15T01:02:01.231Z,996.11
2023-04-15T01:03:01.199Z,996.08
2023-04-15T01:04:01.252Z,996.09
2023-04-15T01:05:01.050Z,996.10
2023-04-15T01:06:03.689Z,996.10
2023-04-15T01:07:01.004Z,996.11
2023-04-15T01:08:00.984Z,996.12
2023-04-15T01:09:01.179Z,996.12
2023-04-15T01:10:00.967Z,996.13
2023-04-15T01:11:00.976Z,996.13
2023-04-15T01:12:00.936Z,996.12
2023-04-15T01:13:00.929Z,996.12
2023-04-15T01:14:00.962Z,996.13
2023-04-15T01:15:00.947Z,996.14
2023-04-15T01:16:00.979Z,996.12
2023-04-15T01:17:00.977Z,996.13
2023-04-15T01:18:00.976Z,996.14
2023-04-15T01:19:01.052Z,996.15
2023-04-15T01:20:00.911Z,996.16
2023-04-15T01:21:00.844Z,996.17
2023-04-15T01:22:00.832Z,996.17
2023-04-15T01:23:00.814Z,996.18
2023-04-15T01:24:00.823Z,996.18
2023-04-15T01:25:00.810Z,996.18
2023-04-15T01:26:00.804Z,996.19
2023-04-15T01:27:00.787Z,996.19
2023-04-15T01:28:00.757Z,996.19
2023-04-15T01:29:01.083Z,996.19
2023-04-15T01:30:00.798Z,996.20
2023-04-15T01:31:00.751Z,996.19
2023-04-15T01:32:00.738Z,996.20
2023-04-15T01:33:00.845Z,996.19
2023-04-15T01:34:00.716Z,996.19
2023-04-15T01:35:00.770Z,996.17
2023-04-15T01:36:00.709Z,996.17
2023-04-15T01:37:00.697Z,996.16
2023-04-15T01:38:00.663Z,996.16
2023-04-15T01:39:00.888Z,996.18
2023-04-15T01:40:00.654Z,996.21
2023-04-15T01:41:00.646Z,996.23
2023-04-15T01:42:00.628Z,996.23
2023-04-15T01:43:00.606Z,996.22
2023-04-15T01:44:00.603Z,996.22
2023-04-15T01:45:00.601Z,996.21
2023-04-15T01:46:00.653Z,996.22
2023-04-15T01:47:00.627Z,996.21
2023-04-15T01:48:00.659Z,996.20
2023-04-15T01:49:00.707Z,996.21
2023-04-15T01:50:00.708Z,996.21
2023-04-15T01:51:00.560Z,996.20
2023-04-15T01:52:00.540Z,996.20
2023-04-15T01:53:00.509Z,996.20
2023-04-15T01:54:00.529Z,996.20
2023-04-15T01:55:00.890Z,996.21
2023-04-15T01:56:00.554Z,996.22
2023-04-15T01:57:00.494Z,996.23
2023-04-15T01:58:00.461Z,996.25
2023-04-15T01:59:00.634Z,996.25
2023-04-15T02:00:00.868Z,996.25
2023-04-15T02:01:00.570Z,996.25
2023-04-15T02:02:00.496Z,996.24
2023-04-15T02:03:00.481Z,996.23
2023-04-15T02:04:00.464Z,996.20
2023-04-15T02:05:00.391Z,996.19
2023-04-15T02:06:00.505Z,996.19
2023-04-15T02:07:00.402Z,996.19
2023-04-15T02:08:00.408Z,996.19
2023-04-15T02:09:00.716Z,996.19
2023-04-15T02:10:00.395Z,996.19
2023-04-15T02:11:00.333Z,996.18
2023-04-15T02:12:00.368Z,996.17
2023-04-15T02:13:00.368Z,996.16
2023-04-15T02:14:00.361Z,996.15
2023-04-15T02:15:00.290Z,996.15
2023-04-15T02:16:00.296Z,996.14
2023-04-15T02:17:00.461Z,996.15
2023-04-15T02:18:00.328Z,996.15
2023-04-15T02:19:00.549Z,996.15
2023-04-15T02:20:00.288Z,996.13
2023-04-15T02:21:00.231Z,996.12
2023-04-15T02:22:00.265Z,996.10
2023-04-15T02:23:00.293Z,996.10
2023-04-15T02:24:00.283Z,996.11
2023-04-15T02:25:00.264Z,996.12
2023-04-15T02:26:00.216Z,996.13
2023-04-15T02:27:00.305Z,996.14
2023-04-15T02:28:00.202Z,996.15
2023-04-15T02:29:00.462Z,996.17
2023-04-15T02:30:00.326Z,996.19
2023-04-15T02:31:00.334Z,996.20
2023-04-15T02:32:00.255Z,996.20
2023-04-15T02:33:00.174Z,996.21
2023-04-15T02:34:00.152Z,996.22
2023-04-15T02:35:00.162Z,996.23
2023-04-15T02:36:00.124Z,996.25
2023-04-15T02:37:00.208Z,996.28
2023-04-15T02:38:00.122Z,996.30
2023-04-15T02:39:00.402Z,996.33
2023-04-15T02:40:00.169Z,996.34
2023-04-15T02:41:00.139Z,996.33
2023-04-15T02:42:00.210Z,996.34
2023-04-15T02:43:00.190Z,996.36
2023-04-15T02:44:00.144Z,996.36
2023-04-15T02:44:59.975Z,996.37
2023-04-15T02:46:00.034Z,996.39
2023-04-15T02:46:59.986Z,996.41
2023-04-15T02:48:00.234Z,996.44
2023-04-15T02:49:00.576Z,996.46
2023-04-15T02:49:59.939Z,996.46
2023-04-15T02:50:59.968Z,996.46
2023-04-15T02:51:59.912Z,996.49
2023-04-15T02:52:59.925Z,996.52
2023-04-15T02:54:00.285Z,996.54
2023-04-15T02:54:59.874Z,996.53
2023-04-15T02:55:59.901Z,996.54
2023-04-15T02:56:59.920Z,996.54
2023-04-15T02:57:59.835Z,996.53
2023-04-15T02:59:00.137Z,996.54
2023-04-15T02:59:59.865Z,996.55
2023-04-15T03:00:59.819Z,996.56
2023-04-15T03:01:59.878Z,996.59
2023-04-15T03:02:59.948Z,996.61
2023-04-15T03:03:59.863Z,996.61
2023-04-15T03:04:59.754Z,996.60
2023-04-15T03:05:59.811Z,996.61
2023-04-15T03:06:59.723Z,996.62
2023-04-15T03:07:59.734Z,996.61
2023-04-15T03:08:59.869Z,996.61
2023-04-15T03:09:59.732Z,996.62
2023-04-15T03:10:59.696Z,996.64
2023-04-15T03:11:59.689Z,996.65
2023-04-15T03:12:59.669Z,996.64
2023-04-15T03:13:59.695Z,996.67
2023-04-15T03:14:59.657Z,996.67
2023-04-15T03:15:59.686Z,996.67
2023-04-15T03:16:59.700Z,996.68
2023-04-15T03:17:59.707Z,996.67
2023-04-15T03:18:59.902Z,996.68
2023-04-15T03:19:59.645Z,996.68
2023-04-15T03:20:59.577Z,996.69
2023-04-15T03:21:59.603Z,996.70
2023-04-15T03:22:59.569Z,996.70
2023-04-15T03:23:59.560Z,996.71
2023-04-15T03:24:59.555Z,996.72
2023-04-15T03:25:59.553Z,996.74
2023-04-15T03:26:59.538Z,996.73
2023-04-15T03:27:59.527Z,996.74
2023-04-15T03:28:59.756Z,996.74
2023-04-15T03:29:59.527Z,996.76
2023-04-15T03:30:59.526Z,996.76
2023-04-15T03:31:59.493Z,996.76
2023-04-15T03:32:59.499Z,996.78
2023-04-15T03:33:59.453Z,996.78
2023-04-15T03:34:59.434Z,996.77
2023-04-15T03:35:59.461Z,996.77
2023-04-15T03:36:59.426Z,996.79
2023-04-15T03:37:59.422Z,996.79
2023-04-15T03:38:59.667Z,996.77
2023-04-15T03:39:59.435Z,996.78
2023-04-15T03:40:59.382Z,996.79
2023-04-15T03:41:59.372Z,996.81
2023-04-15T03:42:59.425Z,996.81
2023-04-15T03:43:59.364Z,996.81
2023-04-15T03:44:59.364Z,996.81
2023-04-15T03:46:01.415Z,996.81
2023-04-15T03:46:59.303Z,996.82
2023-04-15T03:48:11.507Z,996.80
2023-04-15T03:48:59.404Z,996.80
2023-04-15T03:49:59.288Z,996.81
2023-04-15T03:50:59.275Z,996.80
2023-04-15T03:51:59.298Z,996.79
2023-04-15T03:52:59.278Z,996.79
2023-04-15T03:53:59.255Z,996.80
2023-04-15T03:54:59.245Z,996.78
2023-04-15T03:55:59.224Z,996.78
2023-04-15T03:56:59.281Z,996.76
2023-04-15T03:57:59.241Z,996.75
2023-04-15T03:58:59.340Z,996.73
2023-04-15T03:59:59.209Z,996.72
2023-04-15T04:00:59.258Z,996.72
2023-04-15T04:01:59.380Z,996.73
2023-04-15T04:02:59.309Z,996.73
2023-04-15T04:03:59.301Z,996.73
2023-04-15T04:04:59.154Z,996.76
2023-04-15T04:05:59.198Z,996.76
2023-04-15T04:06:59.069Z,996.75
2023-04-15T04:07:59.065Z,996.74
2023-04-15T04:08:59.164Z,996.76
2023-04-15T04:09:59.025Z,996.77
2023-04-15T04:10:59.056Z,996.78
2023-04-15T04:11:59.006Z,996.79
2023-04-15T04:12:59.013Z,996.81
2023-04-15T04:13:58.993Z,996.82
2023-04-15T04:14:59.073Z,996.84
2023-04-15T04:15:59.113Z,996.84
2023-04-15T04:16:59.126Z,996.87
2023-04-15T04:17:58.988Z,996.85
2023-04-15T04:18:59.123Z,996.86
2023-04-15T04:19:58.973Z,996.85
2023-04-15T04:20:58.920Z,996.85
2023-04-15T04:21:58.910Z,996.86
2023-04-15T04:22:58.888Z,996.86
2023-04-15T04:23:58.896Z,996.85
2023-04-15T04:24:58.959Z,996.84
2023-04-15T04:25:59.036Z,996.84
2023-04-15T04:26:58.913Z,996.84
2023-04-15T04:27:58.836Z,996.84
2023-04-15T04:28:58.988Z,996.83
2023-04-15T04:29:58.854Z,996.84
2023-04-15T04:30:58.813Z,996.83
2023-04-15T04:31:58.825Z,996.84
2023-04-15T04:32:58.858Z,996.85
2023-04-15T04:33:58.769Z,996.87
2023-04-15T04:34:58.795Z,996.90
2023-04-15T04:35:58.752Z,996.91
2023-04-15T04:36:58.765Z,996.93
2023-04-15T04:37:58.734Z,996.94
2023-04-15T04:38:58.782Z,996.95
2023-04-15T04:39:58.719Z,996.95
2023-04-15T04:40:58.705Z,996.95
2023-04-15T04:41:58.703Z,996.95
2023-04-15T04:42:58.679Z,996.96
2023-04-15T04:43:58.662Z,996.97
2023-04-15T04:44:58.661Z,996.97
2023-04-15T04:45:58.705Z,996.97
2023-04-15T04:46:58.674Z,996.98
2023-04-15T04:47:58.680Z,996.98
2023-04-15T04:48:58.642Z,996.99
2023-04-15T04:49:58.599Z,996.99
2023-04-15T04:50:58.590Z,997.00
2023-04-15T04:51:58.615Z,997.02
2023-04-15T04:52:58.558Z,997.02
2023-04-15T04:53:58.566Z,997.02
2023-04-15T04:54:58.542Z,997.03
2023-04-15T04:55:58.553Z,997.03
2023-04-15T04:56:58.525Z,997.05
2023-04-15T04:57:58.562Z,997.07
2023-04-15T04:58:58.573Z,997.09
2023-04-15T04:59:58.487Z,997.10
2023-04-15T05:00:58.573Z,997.12
2023-04-15T05:01:58.603Z,997.14
2023-04-15T05:02:58.593Z,997.15
2023-04-15T05:03:59.191Z,997.16
2023-04-15T05:04:58.445Z,997.19
2023-04-15T05:05:58.552Z,997.20
2023-04-15T05:06:58.431Z,997.21
2023-04-15T05:07:58.399Z,997.21
2023-04-15T05:08:58.422Z,997.22
2023-04-15T05:09:58.439Z,997.23
2023-04-15T05:10:58.384Z,997.26
2023-04-15T05:11:58.487Z,997.27
2023-04-15T05:12:58.356Z,997.28
2023-04-15T05:13:58.388Z,997.30
2023-04-15T05:14:58.361Z,997.30
2023-04-15T05:15:58.436Z,997.31
2023-04-15T05:16:58.356Z,997.33
2023-04-15T05:17:58.345Z,997.35
2023-04-15T05:18:58.325Z,997.36
2023-04-15T05:19:58.282Z,997.37
2023-04-15T05:20:58.284Z,997.39
2023-04-15T05:21:58.287Z,997.42
2023-04-15T05:22:58.292Z,997.44
2023-04-15T05:23:58.240Z,997.46
2023-04-15T05:24:58.244Z,997.48
2023-04-15T05:25:58.261Z,997.49
2023-04-15T05:26:58.226Z,997.51
2023-04-15T05:27:58.196Z,997.53
2023-04-15T05:28:58.281Z,997.54
2023-04-15T05:29:58.168Z,997.55
2023-04-15T05:30:58.251Z,997.57
2023-04-15T05:31:58.159Z,997.59
2023-04-15T05:32:58.197Z,997.61
2023-04-15T05:33:58.150Z,997.61
2023-04-15T05:34:58.140Z,997.61
2023-04-15T05:35:58.122Z,997.63
2023-04-15T05:36:58.162Z,997.63
2023-04-15T05:37:58.113Z,997.64
2023-04-15T05:38:58.131Z,997.64
2023-04-15T05:39:58.148Z,997.65
2023-04-15T05:40:58.224Z,997.65
2023-04-15T05:41:58.173Z,997.66
2023-04-15T05:42:58.103Z,997.67
2023-04-15T05:43:58.035Z,997.68
2023-04-15T05:44:58.028Z,997.69
2023-04-15T05:45:58.189Z,997.70
2023-04-15T05:46:58.021Z,997.72
2023-04-15T05:47:58.038Z,997.73
2023-04-15T05:48:58.065Z,997.75
2023-04-15T05:49:58.028Z,997.76
2023-04-15T05:50:57.978Z,997.78
2023-04-15T05:51:57.948Z,997.78
2023-04-15T05:52:57.940Z,997.79
2023-04-15T05:53:57.947Z,997.79
2023-04-15T05:54:57.993Z,997.78
2023-04-15T05:55:57.895Z,997.77
2023-04-15T05:56:57.909Z,997.77
2023-04-15T05:57:57.889Z,997.77
2023-04-15T05:58:57.999Z,997.77
2023-04-15T05:59:57.875Z,997.78
2023-04-15T06:00:57.867Z,997.79
2023-04-15T06:01:57.870Z,997.80
2023-04-15T06:02:57.919Z,997.82
2023-04-15T06:03:57.995Z,997.84
2023-04-15T06:04:57.911Z,997.85
2023-04-15T06:05:57.814Z,997.87
2023-04-15T06:06:57.836Z,997.88
2023-04-15T06:07:57.791Z,997.90
2023-04-15T06:08:57.767Z,997.92
2023-04-15T06:09:58.039Z,997.92
2023-04-15T06:10:57.794Z,997.91
2023-04-15T06:11:57.749Z,997.93
2023-04-15T06:12:57.746Z,997.95
2023-04-15T06:13:57.714Z,997.95
2023-04-15T06:14:59.933Z,997.96
2023-04-15T06:15:57.713Z,997.97
2023-04-15T06:16:57.704Z,997.98
2023-04-15T06:17:57.719Z,997.98
2023-04-15T06:18:57.709Z,997.98
2023-04-15T06:19:57.692Z,997.98
2023-04-15T06:20:57.804Z,998.00
2023-04-15T06:21:57.636Z,998.01
2023-04-15T06:22:57.665Z,998.03
2023-04-15T06:23:57.674Z,998.04
2023-04-15T06:24:57.717Z,998.05
2023-04-15T06:25:57.597Z,998.06
2023-04-15T06:26:57.609Z,998.08
2023-04-15T06:27:57.567Z,998.09
2023-04-15T06:28:57.590Z,998.09
2023-04-15T06:29:57.590Z,998.10
2023-04-15T06:30:57.571Z,998.09
2023-04-15T06:31:57.632Z,998.10
2023-04-15T06:32:57.584Z,998.10
2023-04-15T06:33:57.531Z,998.09
2023-04-15T06:34:57.531Z,998.08
2023-04-15T06:35:57.611Z,998.09
2023-04-15T06:36:57.509Z,998.08
2023-04-15T06:37:57.520Z,998.09
2023-04-15T06:38:57.496Z,998.11
2023-04-15T06:39:57.491Z,998.09
2023-04-15T06:40:57.480Z,998.10
2023-04-15T06:41:57.440Z,998.12
2023-04-15T06:42:57.420Z,998.13
2023-04-15T06:43:57.481Z,998.14
2023-04-15T06:44:57.426Z,998.13
2023-04-15T06:45:57.537Z,998.15
2023-04-15T06:46:57.441Z,998.15
2023-04-15T06:47:57.379Z,998.16
2023-04-15T06:48:57.396Z,998.17
2023-04-15T06:49:57.353Z,998.17
2023-04-15T06:50:57.423Z,998.18
2023-04-15T06:51:57.345Z,998.17
2023-04-15T06:52:57.375Z,998.17
2023-04-15T06:53:57.344Z,998.18
2023-04-15T06:54:57.909Z,998.20
2023-04-15T06:55:57.337Z,998.20
2023-04-15T06:56:57.357Z,998.21
2023-04-15T06:57:57.260Z,998.21
2023-04-15T06:58:57.250Z,998.22
2023-04-15T06:59:57.225Z,998.23
2023-04-15T07:00:57.234Z,998.25
2023-04-15T07:01:57.238Z,998.24
2023-04-15T07:02:57.274Z,998.24
2023-04-15T07:03:57.187Z,998.26
2023-04-15T07:04:57.181Z,998.27
2023-04-15T07:05:57.162Z,998.30
2023-04-15T07:06:57.182Z,998.27
2023-04-15T07:07:57.146Z,998.29
2023-04-15T07:08:57.137Z,998.30
2023-04-15T07:09:57.125Z,998.29
2023-04-15T07:10:57.145Z,998.31
2023-04-15T07:11:57.165Z,998.31
2023-04-15T07:12:57.374Z,998.30
2023-04-15T07:13:57.136Z,998.31
2023-04-15T07:14:57.112Z,998.33
2023-04-15T07:15:57.190Z,998.32
2023-04-15T07:16:57.153Z,998.31
2023-04-15T07:17:57.201Z,998.34
2023-04-15T07:18:57.020Z,998.34
2023-04-15T07:19:57.106Z,998.34
2023-04-15T07:20:57.043Z,998.32
2023-04-15T07:21:56.988Z,998.31
2023-04-15T07:22:57.029Z,998.32
2023-04-15T07:23:56.982Z,998.32
2023-04-15T07:24:56.962Z,998.30
2023-04-15T07:25:56.959Z,998.31
2023-04-15T07:26:58.535Z,998.33
2023-04-15T07:27:56.921Z,998.30
2023-04-15T07:28:56.955Z,998.31
2023-04-15T07:29:56.924Z,998.31
2023-04-15T07:30:56.915Z,998.30
2023-04-15T07:31:56.888Z,998.31
2023-04-15T07:32:56.949Z,998.31
2023-04-15T07:33:56.859Z,998.31
2023-04-15T07:34:56.856Z,998.32
2023-04-15T07:35:57.062Z,998.33
2023-04-15T07:36:56.865Z,998.33
2023-04-15T07:37:56.841Z,998.31
2023-04-15T07:38:56.843Z,998.31
2023-04-15T07:39:56.879Z,998.37
2023-04-15T07:40:56.781Z,998.35
2023-04-15T07:41:56.788Z,998.36
2023-04-15T07:42:56.790Z,998.38
2023-04-15T07:43:56.747Z,998.39
2023-04-15T07:44:56.766Z,998.40
2023-04-15T07:45:56.747Z,998.42
2023-04-15T07:46:56.835Z,998.41
2023-04-15T07:47:57.786Z,998.42
2023-04-15T07:48:56.708Z,998.41
2023-04-15T07:49:56.700Z,998.49
2023-04-15T07:50:56.697Z,998.45
2023-04-15T07:51:56.768Z,998.46
2023-04-15T07:52:56.733Z,998.44
2023-04-15T07:53:56.987Z,998.46
2023-04-15T07:54:56.646Z,998.48
2023-04-15T07:55:56.640Z,998.49
2023-04-15T07:56:56.709Z,998.50
2023-04-15T07:57:56.659Z,998.50
2023-04-15T07:58:56.623Z,998.50
2023-04-15T07:59:56.635Z,998.55
2023-04-15T08:00:56.593Z,998.53
2023-04-15T08:01:56.583Z,998.54
2023-04-15T08:02:56.680Z,998.53
2023-04-15T08:03:56.753Z,998.54
2023-04-15T08:04:56.639Z,998.56
2023-04-15T08:05:56.613Z,998.62
2023-04-15T08:06:56.780Z,998.60
2023-04-15T08:07:56.600Z,998.62
2023-04-15T08:08:56.745Z,998.63
2023-04-15T08:09:56.634Z,998.65
2023-04-15T08:10:56.742Z,998.65
2023-04-15T08:11:56.755Z,998.65
2023-04-15T08:12:56.563Z,998.64
2023-04-15T08:13:56.906Z,998.64
2023-04-15T08:14:56.815Z,998.67
2023-04-15T08:15:56.463Z,998.67
2023-04-15T08:16:56.400Z,998.69
2023-04-15T08:17:56.425Z,998.67
2023-04-15T08:18:56.399Z,998.73
2023-04-15T08:19:56.371Z,998.69
2023-04-15T08:20:56.389Z,998.73
2023-04-15T08:21:56.345Z,998.75
2023-04-15T08:22:56.379Z,998.73
2023-04-15T08:23:56.436Z,998.74
2023-04-15T08:24:56.606Z,998.75
2023-04-15T08:25:56.338Z,998.77
2023-04-15T08:26:56.331Z,998.75
2023-04-15T08:27:56.307Z,998.79
2023-04-15T08:28:56.473Z,998.82
2023-04-15T08:29:56.254Z,998.83
2023-04-15T08:30:56.260Z,998.82
2023-04-15T08:31:56.325Z,998.79
2023-04-15T08:32:56.277Z,998.83
2023-04-15T08:33:56.247Z,998.86
2023-04-15T08:34:56.229Z,998.84
2023-04-15T08:35:56.190Z,998.82
2023-04-15T08:36:56.212Z,998.83
2023-04-15T08:37:56.165Z,998.83
2023-04-15T08:38:56.260Z,998.85
2023-04-15T08:39:56.228Z,998.83
2023-04-15T08:40:56.340Z,998.85
2023-04-15T08:41:56.224Z,998.85
2023-04-15T08:42:56.181Z,998.89
2023-04-15T08:43:56.137Z,998.88
2023-04-15T08:44:56.132Z,998.92
2023-04-15T08:45:56.089Z,998.95
2023-04-15T08:46:56.167Z,998.93
2023-04-15T08:47:56.300Z,998.95
2023-04-15T08:48:56.163Z,998.96
2023-04-15T08:49:56.169Z,998.95
2023-04-15T08:50:56.180Z,998.96
2023-04-15T08:51:56.023Z,998.98
2023-04-15T08:52:56.059Z,998.94
2023-04-15T08:53:56.024Z,998.98
2023-04-15T08:54:56.047Z,999.00
2023-04-15T08:55:55.977Z,998.98
2023-04-15T08:56:56.033Z,999.00
2023-04-15T08:57:55.972Z,999.01
2023-04-15T08:58:56.015Z,999.03
2023-04-15T08:59:55.971Z,999.00
2023-04-15T09:00:55.993Z,999.02
2023-04-15T09:01:55.940Z,999.07
2023-04-15T09:02:56.006Z,999.00
2023-04-15T09:03:56.069Z,999.05
2023-04-15T09:04:55.910Z,999.07
2023-04-15T09:05:55.928Z,999.07
2023-04-15T09:06:55.888Z,999.09
2023-04-15T09:07:55.899Z,999.09
2023-04-15T09:08:55.855Z,999.06
2023-04-15T09:09:55.861Z,999.08
2023-04-15T09:10:55.846Z,999.12
2023-04-15T09:11:55.823Z,999.12
2023-04-15T09:12:55.801Z,999.11
2023-04-15T09:13:55.822Z,999.12
2023-04-15T09:14:55.825Z,999.16
2023-04-15T09:15:55.785Z,999.16
2023-04-15T09:16:55.775Z,999.17
2023-04-15T09:17:55.772Z,999.18
2023-04-15T09:18:55.768Z,999.18
2023-04-15T09:19:55.728Z,999.17
2023-04-15T09:20:55.728Z,999.20
2023-04-15T09:21:58.452Z,999.19
2023-04-15T09:22:56.368Z,999.21
2023-04-15T09:23:55.705Z,999.22
2023-04-15T09:24:55.686Z,999.22
2023-04-15T09:25:55.689Z,999.24
2023-04-15T09:26:55.645Z,999.24
2023-04-15T09:27:55.656Z,999.27
2023-04-15T09:28:55.687Z,999.29
2023-04-15T09:29:55.936Z,999.29
2023-04-15T09:30:55.629Z,999.27
2023-04-15T09:31:55.622Z,999.27
2023-04-15T09:32:55.667Z,999.31
2023-04-15T09:33:55.594Z,999.31
2023-04-15T09:34:55.561Z,999.34
2023-04-15T09:35:55.594Z,999.32
2023-04-15T09:36:55.574Z,999.33
2023-04-15T09:37:55.551Z,999.37
2023-04-15T09:38:55.546Z,999.36
2023-04-15T09:39:55.529Z,999.38
2023-04-15T09:40:55.512Z,999.37
2023-04-15T09:41:55.542Z,999.46
2023-04-15T09:42:55.543Z,999.34
2023-04-15T09:43:55.579Z,999.40
2023-04-15T09:44:55.611Z,999.39
2023-04-15T09:45:55.562Z,999.41
2023-04-15T09:46:55.471Z,999.39
2023-04-15T09:47:56.945Z,999.39
2023-04-15T09:48:55.491Z,999.41
2023-04-15T09:49:55.517Z,999.45
2023-04-15T09:50:55.474Z,999.44
2023-04-15T09:52:05.094Z,999.45
2023-04-15T09:52:55.381Z,999.48
2023-04-15T09:53:55.362Z,999.48
2023-04-15T09:54:55.350Z,999.51
2023-04-15T09:55:55.365Z,999.48
2023-04-15T09:56:55.338Z,999.50
2023-04-15T09:57:55.321Z,999.49
2023-04-15T09:58:55.330Z,999.50
2023-04-15T09:59:55.308Z,999.53
2023-04-15T10:00:55.299Z,999.50
2023-04-15T10:01:55.476Z,999.50
2023-04-15T10:02:55.594Z,999.48
2023-04-15T10:03:55.474Z,999.47
2023-04-15T10:04:55.246Z,999.51
2023-04-15T10:05:55.274Z,999.50
2023-04-15T10:06:55.230Z,999.50
2023-04-15T10:07:55.318Z,999.54
2023-04-15T10:08:55.230Z,999.57
2023-04-15T10:09:55.218Z,999.57
2023-04-15T10:10:55.214Z,999.56
2023-04-15T10:11:55.254Z,999.59
2023-04-15T10:12:55.161Z,999.60
2023-04-15T10:13:55.192Z,999.60
2023-04-15T10:14:55.121Z,999.61
2023-04-15T10:15:55.273Z,999.59
2023-04-15T10:16:55.135Z,999.62
2023-04-15T10:17:55.159Z,999.60
2023-04-15T10:18:55.137Z,999.62
2023-04-15T10:19:55.128Z,999.67
2023-04-15T10:20:55.074Z,999.65
2023-04-15T10:21:55.092Z,999.65
2023-04-15T10:22:55.041Z,999.67
2023-04-15T10:23:55.055Z,999.69
2023-04-15T10:24:55.049Z,999.70
2023-04-15T10:25:55.022Z,999.69
2023-04-15T10:26:55.028Z,999.70
2023-04-15T10:27:55.051Z,999.72
2023-04-15T10:28:54.989Z,999.73
2023-04-15T10:29:54.980Z,999.72
2023-04-15T10:30:55.021Z,999.74
2023-04-15T10:31:55.022Z,999.75
2023-04-15T10:32:54.998Z,999.76
2023-04-15T10:33:54.951Z,999.79
2023-04-15T10:34:54.979Z,999.79
2023-04-15T10:35:54.929Z,999.77
2023-04-15T10:36:54.964Z,999.82
2023-04-15T10:37:54.882Z,999.78
2023-04-15T10:38:54.939Z,999.82
2023-04-15T10:39:54.882Z,999.81
2023-04-15T10:40:54.851Z,999.82
2023-04-15T10:41:54.876Z,999.83
2023-04-15T10:42:54.830Z,999.84
2023-04-15T10:43:54.914Z,999.82
2023-04-15T10:44:54.875Z,999.87
2023-04-15T10:45:54.812Z,999.82
2023-04-15T10:46:54.834Z,999.82
2023-04-15T10:47:54.866Z,999.86
2023-04-15T10:48:54.779Z,999.85
2023-04-15T10:49:54.809Z,999.86
2023-04-15T10:50:54.739Z,999.84
2023-04-15T10:51:54.768Z,999.88
2023-04-15T10:52:54.765Z,999.87
2023-04-15T10:53:54.712Z,999.85
2023-04-15T10:54:54.713Z,999.87
2023-04-15T10:55:54.692Z,999.89
2023-04-15T10:56:54.684Z,999.89
2023-04-15T10:57:54.713Z,999.90
2023-04-15T10:58:54.657Z,999.91
2023-04-15T10:59:54.674Z,999.86
2023-04-15T11:00:54.706Z,999.92
2023-04-15T11:01:54.823Z,999.90
2023-04-15T11:02:54.789Z,999.90
2023-04-15T11:03:54.712Z,999.94
2023-04-15T11:04:54.661Z,999.92
2023-04-15T11:05:54.603Z,999.90
2023-04-15T11:06:54.572Z,999.90
2023-04-15T11:07:54.610Z,999.92
2023-04-15T11:08:54.561Z,999.89
2023-04-15T11:09:54.771Z,999.89
2023-04-15T11:10:54.532Z,999.92
2023-04-15T11:11:54.759Z,999.87
2023-04-15T11:12:54.524Z,999.89
2023-04-15T11:13:54.540Z,999.92
2023-04-15T11:14:54.491Z,999.92
2023-04-15T11:15:54.530Z,999.92
2023-04-15T11:16:54.497Z,999.91
2023-04-15T11:17:54.508Z,999.95
2023-04-15T11:18:54.442Z,999.93
2023-04-15T11:19:54.437Z,999.96
2023-04-15T11:20:54.416Z,999.94
2023-04-15T11:21:54.429Z,999.93
2023-04-15T11:22:55.013Z,999.92
2023-04-15T11:23:54.398Z,999.93
2023-04-15T11:24:54.428Z,999.94
2023-04-15T11:25:54.363Z,999.93
2023-04-15T11:26:54.346Z,999.96
2023-04-15T11:27:54.369Z,999.94
2023-04-15T11:28:54.328Z,999.94
2023-04-15T11:29:54.331Z,999.96
2023-04-15T11:30:54.402Z,999.99
2023-04-15T11:31:54.344Z,999.99
2023-04-15T11:32:54.313Z,1000.01
2023-04-15T11:33:54.354Z,1000.04
2023-04-15T11:34:54.275Z,1000.05
2023-04-15T11:35:54.289Z,1000.11
2023-04-15T11:36:54.380Z,1000.15
2023-04-15T11:37:54.240Z,1000.13
2023-04-15T11:38:54.241Z,1000.16
2023-04-15T11:39:54.233Z,1000.18
2023-04-15T11:40:54.217Z,1000.19
2023-04-15T11:41:54.207Z,1000.11
2023-04-15T11:42:54.183Z,1000.16
2023-04-15T11:43:54.244Z,1000.20
2023-04-15T11:44:54.169Z,1000.25
2023-04-15T11:45:54.210Z,1000.18
2023-04-15T11:46:54.157Z,1000.22
2023-04-15T11:47:54.197Z,1000.26
2023-04-15T11:48:54.191Z,1000.24
2023-04-15T11:49:54.123Z,1000.23
2023-04-15T11:50:54.100Z,1000.25
2023-04-15T11:51:54.101Z,1000.25
2023-04-15T11:52:54.083Z,1000.25
2023-04-15T11:53:54.089Z,1000.26
2023-04-15T11:54:54.058Z,1000.25
2023-04-15T11:55:54.064Z,1000.28
2023-04-15T11:56:54.043Z,1000.26
2023-04-15T11:57:54.033Z,1000.26
2023-04-15T11:58:54.216Z,1000.26
2023-04-15T11:59:54.036Z,1000.26
2023-04-15T12:00:54.023Z,1000.27
2023-04-15T12:01:54.185Z,1000.29
2023-04-15T12:02:54.103Z,1000.30
2023-04-15T12:03:54.113Z,1000.30
2023-04-15T12:04:54.152Z,1000.30
2023-04-15T12:05:53.980Z,1000.32
2023-04-15T12:06:53.931Z,1000.32
2023-04-15T12:07:53.942Z,1000.33
2023-04-15T12:08:53.897Z,1000.37
2023-04-15T12:09:53.977Z,1000.36
2023-04-15T12:10:53.907Z,1000.37
2023-04-15T12:11:54.120Z,1000.39
2023-04-15T12:12:53.874Z,1000.39
2023-04-15T12:13:53.888Z,1000.40
2023-04-15T12:14:53.839Z,1000.41
2023-04-15T12:15:53.883Z,1000.38
2023-04-15T12:16:53.944Z,1000.37
2023-04-15T12:17:53.852Z,1000.41
2023-04-15T12:18:53.804Z,1000.39
2023-04-15T12:19:53.792Z,1000.40
2023-04-15T12:20:53.782Z,1000.40
2023-04-15T12:21:53.803Z,1000.43
2023-04-15T12:22:53.758Z,1000.43
2023-04-15T12:23:53.828Z,1000.43
2023-04-15T12:24:53.744Z,1000.46
2023-04-15T12:25:53.790Z,1000.43